Time;durP1;ratioP1;P1;durP2;ratioP2;P2;SDS_P1;SDS_P2;PMS_P1;PMS_P2;Temp;Humidity;BMP_temperature;BMP_pressure;BME280_temperature;BME280_humidity;BME280_pressure;Samples;Min_cycle;Max_cycle;Signal;HPM_P1;HPM_P2
2023/11/30 00:04:57;;;;;;;6.73;6.13;;;3.90;99.90;;;;;;10315825;28;20243;-78
2023/11/30 00:10:00;;;;;;;6.77;6.10;;;3.90;99.90;;;;;;10315910;28;20599;-77
2023/11/30 00:15:03;;;;;;;6.53;6.00;;;3.90;99.90;;;;;;10314798;28;20223;-80
2023/11/30 00:20:07;;;;;;;6.43;5.83;;;3.80;99.90;;;;;;10315431;28;20214;-78
2023/11/30 00:25:11;;;;;;;6.80;6.17;;;3.80;99.90;;;;;;10294655;28;20223;-76
2023/11/30 00:30:13;;;;;;;8.50;6.43;;;3.80;99.90;;;;;;10296580;28;20210;-78
2023/11/30 00:35:16;;;;;;;5.93;5.43;;;3.80;99.90;;;;;;10311670;28;20214;-78
2023/11/30 00:40:19;;;;;;;5.70;5.20;;;3.80;99.90;;;;;;10294371;28;20273;-78
2023/11/30 00:45:23;;;;;;;6.00;5.50;;;3.80;99.90;;;;;;10293141;28;20207;-78
2023/11/30 00:50:25;;;;;;;6.20;5.70;;;3.80;99.90;;;;;;10293076;28;20626;-78
2023/11/30 00:55:29;;;;;;;7.37;6.67;;;3.80;99.90;;;;;;10309992;28;20215;-77
2023/11/30 01:00:31;;;;;;;6.10;5.60;;;3.80;99.90;;;;;;10303721;28;20553;-79
2023/11/30 01:05:33;;;;;;;6.93;6.33;;;3.80;99.90;;;;;;10311101;28;20569;-78
2023/11/30 01:10:37;;;;;;;6.97;6.37;;;3.80;99.90;;;;;;10274285;28;20625;-78
2023/11/30 01:15:39;;;;;;;6.50;6.00;;;3.80;99.90;;;;;;10306626;28;20224;-78
2023/11/30 01:20:42;;;;;;;7.30;6.60;;;3.70;99.90;;;;;;10308432;28;20196;-78
2023/11/30 01:25:45;;;;;;;6.93;6.37;;;3.80;99.90;;;;;;10318018;28;20597;-78
2023/11/30 01:30:48;;;;;;;7.10;6.50;;;3.70;99.90;;;;;;10290483;28;20231;-78
2023/11/30 01:35:50;;;;;;;7.53;6.87;;;3.70;99.90;;;;;;10308988;28;20227;-78
2023/11/30 01:40:54;;;;;;;6.70;6.10;;;3.70;99.90;;;;;;10323756;28;20234;-78
2023/11/30 01:45:56;;;;;;;8.03;7.23;;;3.70;99.90;;;;;;10295069;28;20730;-76
2023/11/30 01:50:59;;;;;;;6.40;5.90;;;3.70;99.90;;;;;;10272772;28;20274;-78
2023/11/30 01:56:03;;;;;;;7.07;6.47;;;3.70;99.90;;;;;;10287548;28;20223;-78
2023/11/30 02:01:07;;;;;;;7.30;6.70;;;3.70;99.90;;;;;;10280902;28;20200;-77
2023/11/30 02:06:10;;;;;;;6.93;6.37;;;3.80;99.90;;;;;;10296339;28;20212;-78
2023/11/30 02:11:14;;;;;;;6.60;6.10;;;3.80;99.90;;;;;;10294170;28;20223;-78
2023/11/30 02:16:16;;;;;;;6.40;5.90;;;3.80;99.90;;;;;;10292781;28;20262;-77
2023/11/30 02:21:18;;;;;;;7.83;6.80;;;3.70;99.90;;;;;;10292674;28;20263;-77
2023/11/30 02:26:22;;;;;;;7.20;6.60;;;3.70;99.90;;;;;;10290649;28;20759;-78
2023/11/30 02:31:24;;;;;;;6.50;5.90;;;3.70;99.90;;;;;;10279440;28;20232;-76
2023/11/30 02:36:27;;;;;;;6.13;5.63;;;3.60;99.90;;;;;;10308836;28;20227;-77
2023/11/30 02:41:30;;;;;;;6.50;6.00;;;3.50;99.90;;;;;;10294988;28;20254;-79
2023/11/30 02:46:33;;;;;;;5.70;5.20;;;3.40;99.90;;;;;;10307630;28;20231;-77
2023/11/30 02:51:36;;;;;;;6.17;5.77;;;3.30;99.90;;;;;;10309666;28;20666;-79
2023/11/30 02:56:41;;;;;;;5.60;5.17;;;3.20;99.90;;;;;;10308953;28;20224;-79
2023/11/30 03:01:44;;;;;;;5.37;4.70;;;3.20;99.90;;;;;;10295789;28;20196;-80
2023/11/30 03:06:49;;;;;;;6.13;5.63;;;3.20;99.90;;;;;;10306219;28;20223;-80
2023/11/30 03:11:53;;;;;;;5.73;5.10;;;3.20;99.90;;;;;;10305380;28;20218;-77
2023/11/30 03:16:56;;;;;;;6.20;5.70;;;3.20;99.90;;;;;;10293491;28;20231;-80
2023/11/30 03:21:58;;;;;;;6.00;5.50;;;3.20;99.90;;;;;;10305525;28;20631;-79
2023/11/30 03:27:02;;;;;;;6.37;5.67;;;3.20;99.90;;;;;;10313170;28;20239;-77
2023/11/30 03:32:05;;;;;;;5.87;5.37;;;3.20;99.90;;;;;;10290969;28;20287;-78
2023/11/30 03:37:08;;;;;;;6.43;5.60;;;3.10;99.90;;;;;;10291310;28;20227;-77
2023/11/30 03:42:11;;;;;;;5.63;5.10;;;3.20;99.90;;;;;;10291368;28;20215;-78
2023/11/30 03:47:14;;;;;;;6.40;5.80;;;3.20;99.90;;;;;;10290901;28;20294;-77
2023/11/30 03:52:16;;;;;;;7.07;6.47;;;3.20;99.90;;;;;;10291089;28;20235;-77
2023/11/30 03:57:20;;;;;;;6.20;5.70;;;3.20;99.90;;;;;;10298487;28;20263;-78
2023/11/30 04:02:23;;;;;;;7.17;6.57;;;3.30;99.90;;;;;;10284591;28;20317;-78
2023/11/30 04:07:29;;;;;;;6.17;5.67;;;3.30;99.90;;;;;;10289993;28;20589;-78
2023/11/30 04:12:33;;;;;;;6.43;5.93;;;3.40;99.90;;;;;;10288914;28;20767;-80
2023/11/30 04:17:35;;;;;;;7.23;6.33;;;3.50;99.90;;;;;;10288533;28;20564;-77
2023/11/30 04:22:37;;;;;;;7.27;6.57;;;3.50;99.90;;;;;;10295410;28;20204;-80
2023/11/30 04:27:41;;;;;;;6.50;6.00;;;3.50;99.90;;;;;;10296024;28;20701;-79
2023/11/30 04:32:43;;;;;;;8.33;6.00;;;3.50;99.90;;;;;;10291457;28;20227;-79
2023/11/30 04:37:46;;;;;;;6.80;6.20;;;3.50;99.90;;;;;;10296319;28;20275;-80
2023/11/30 04:42:50;;;;;;;6.67;6.07;;;3.40;99.90;;;;;;10295288;28;20223;-79
2023/11/30 04:47:52;;;;;;;6.50;5.90;;;3.40;99.90;;;;;;10291713;28;20220;-80
2023/11/30 04:52:55;;;;;;;5.93;5.30;;;3.50;99.90;;;;;;10296616;28;20223;-79
2023/11/30 04:57:59;;;;;;;6.40;5.90;;;3.50;99.90;;;;;;10299585;28;20961;-79
2023/11/30 05:03:01;;;;;;;5.30;4.83;;;3.50;99.90;;;;;;10289365;28;20544;-79
2023/11/30 05:08:04;;;;;;;7.03;6.43;;;3.50;99.90;;;;;;10289619;28;20642;-80
2023/11/30 05:13:07;;;;;;;6.50;6.00;;;3.50;99.90;;;;;;10290882;28;20211;-79
2023/11/30 05:18:10;;;;;;;9.23;8.30;;;3.50;99.90;;;;;;10291766;28;20223;-79
2023/11/30 05:23:12;;;;;;;7.57;6.83;;;3.40;99.90;;;;;;10324192;28;20199;-80
2023/11/30 05:28:16;;;;;;;6.07;5.67;;;3.40;99.90;;;;;;10340708;28;20222;-79
2023/11/30 05:33:19;;;;;;;7.73;7.03;;;3.40;99.90;;;;;;10313349;28;20736;-76
2023/11/30 05:38:21;;;;;;;7.97;7.30;;;3.30;99.90;;;;;;10328456;28;20269;-78
2023/11/30 05:43:25;;;;;;;8.90;8.20;;;3.20;99.90;;;;;;10337567;28;20199;-79
2023/11/30 05:48:27;;;;;;;7.73;7.13;;;3.30;99.90;;;;;;10320872;28;20215;-78
2023/11/30 05:53:29;;;;;;;8.77;7.87;;;3.30;99.90;;;;;;10315249;28;20744;-78
2023/11/30 05:58:33;;;;;;;9.10;8.20;;;3.40;99.90;;;;;;10316591;28;20265;-79
2023/11/30 06:03:36;;;;;;;8.20;7.50;;;3.50;99.90;;;;;;10283020;28;20275;-76
2023/11/30 06:08:38;;;;;;;9.23;8.43;;;3.60;99.90;;;;;;10306738;28;20219;-77
2023/11/30 06:13:42;;;;;;;8.70;7.80;;;3.60;99.90;;;;;;10320448;28;20219;-76
2023/11/30 06:18:44;;;;;;;8.50;7.80;;;3.60;99.90;;;;;;10297223;28;20282;-76
2023/11/30 06:23:46;;;;;;;7.93;7.23;;;3.70;99.90;;;;;;10308485;28;20677;-77
2023/11/30 06:28:50;;;;;;;10.63;7.80;;;3.70;99.90;;;;;;10313104;28;20211;-77
2023/11/30 06:33:53;;;;;;;8.17;7.47;;;3.70;99.90;;;;;;10324912;28;20214;-76
2023/11/30 06:38:55;;;;;;;8.30;7.60;;;3.70;99.90;;;;;;10324325;28;20261;-76
2023/11/30 06:43:59;;;;;;;9.03;8.10;;;3.70;99.90;;;;;;10319887;28;20518;-76
2023/11/30 06:49:01;;;;;;;11.20;10.10;;;3.60;99.90;;;;;;10314291;28;20196;-77
2023/11/30 06:54:03;;;;;;;9.03;8.20;;;3.60;99.90;;;;;;10310890;28;20224;-76
2023/11/30 06:59:07;;;;;;;8.50;7.90;;;3.60;99.90;;;;;;10311987;28;20231;-76
2023/11/30 07:04:09;;;;;;;10.13;9.07;;;3.60;99.90;;;;;;10293784;28;20731;-77
2023/11/30 07:09:12;;;;;;;8.87;8.07;;;3.60;99.90;;;;;;10313517;28;20652;-76
2023/11/30 07:14:16;;;;;;;8.50;7.70;;;3.60;99.90;;;;;;10318994;28;20712;-76
2023/11/30 07:19:18;;;;;;;8.43;7.63;;;3.60;99.90;;;;;;10302378;28;20215;-77
2023/11/30 07:24:20;;;;;;;7.90;7.23;;;3.60;99.90;;;;;;10318896;28;20222;-76
2023/11/30 07:29:24;;;;;;;8.23;7.50;;;3.60;99.90;;;;;;10313709;28;20618;-76
2023/11/30 07:34:26;;;;;;;8.30;7.50;;;3.70;99.90;;;;;;10298131;28;20240;-76
2023/11/30 07:39:29;;;;;;;11.30;10.10;;;3.70;99.90;;;;;;10311445;28;20204;-76
2023/11/30 07:44:32;;;;;;;12.93;11.37;;;3.80;99.90;;;;;;10307056;28;20215;-77
2023/11/30 07:49:35;;;;;;;9.60;8.70;;;3.80;99.90;;;;;;10305948;28;20203;-75
2023/11/30 07:54:37;;;;;;;9.50;8.57;;;3.80;99.90;;;;;;10292126;28;20389;-76
2023/11/30 07:59:41;;;;;;;10.27;9.37;;;3.80;99.90;;;;;;10312703;28;20249;-75
2023/11/30 08:04:43;;;;;;;10.10;9.20;;;3.80;99.90;;;;;;10314826;28;20614;-76
2023/11/30 08:09:46;;;;;;;10.73;9.63;;;3.90;99.90;;;;;;10314179;28;20266;-77
2023/11/30 08:14:50;;;;;;;9.90;8.90;;;4.00;99.90;;;;;;10312868;28;20297;-75
2023/11/30 08:19:53;;;;;;;11.77;10.53;;;4.20;99.90;;;;;;10313004;28;20203;-76
2023/11/30 08:24:55;;;;;;;12.33;11.10;;;4.30;99.90;;;;;;10312324;28;20630;-76
2023/11/30 08:29:59;;;;;;;11.23;10.20;;;4.40;99.90;;;;;;10312206;28;20712;-76
2023/11/30 08:35:01;;;;;;;11.03;9.90;;;4.40;99.90;;;;;;10310904;28;20282;-76
2023/11/30 08:40:04;;;;;;;10.73;9.67;;;4.50;99.90;;;;;;10311717;28;20203;-76
2023/11/30 08:45:09;;;;;;;12.33;11.23;;;4.60;99.70;;;;;;10309723;28;20222;-76
2023/11/30 08:50:14;;;;;;;11.17;10.07;;;4.60;99.90;;;;;;10308321;28;20226;-76
2023/11/30 08:55:16;;;;;;;10.47;9.37;;;4.70;99.90;;;;;;10308336;28;20231;-76
2023/11/30 09:00:21;;;;;;;10.93;9.90;;;4.80;99.90;;;;;;10308401;28;20202;-77
2023/11/30 09:05:23;;;;;;;11.80;10.70;;;4.90;99.90;;;;;;10306951;28;20760;-74
2023/11/30 09:10:26;;;;;;;10.67;9.67;;;4.90;99.90;;;;;;10306895;28;20203;-76
2023/11/30 09:15:30;;;;;;;12.03;10.83;;;5.00;99.90;;;;;;10320701;23;20231;-77
2023/11/30 09:20:32;;;;;;;12.90;10.30;;;5.10;99.90;;;;;;10327430;28;20295;-77
2023/11/30 09:25:35;;;;;;;16.73;12.27;;;5.10;99.90;;;;;;10302744;28;20697;-77
2023/11/30 09:30:39;;;;;;;12.30;10.57;;;5.20;99.90;;;;;;10347198;28;20289;-78
2023/11/30 09:35:41;;;;;;;12.30;11.10;;;5.20;99.90;;;;;;10326588;28;20214;-77
2023/11/30 09:40:44;;;;;;;13.00;11.60;;;5.30;99.90;;;;;;10349459;28;20265;-77
2023/11/30 09:45:49;;;;;;;11.73;10.67;;;5.30;99.90;;;;;;10348877;28;20250;-77
2023/11/30 09:50:52;;;;;;;11.87;10.83;;;5.40;99.90;;;;;;10326556;28;20195;-77
2023/11/30 09:55:54;;;;;;;22.73;20.13;;;5.40;99.90;;;;;;10346191;28;20231;-77
2023/11/30 10:01:00;;;;;;;13.03;11.73;;;5.50;99.50;;;;;;10327135;28;20628;-77
2023/11/30 10:06:03;;;;;;;11.33;10.23;;;5.50;99.90;;;;;;10349346;28;20221;-77
2023/11/30 10:11:07;;;;;;;12.40;11.20;;;5.50;99.50;;;;;;10327128;28;20226;-77
2023/11/30 10:16:11;;;;;;;13.03;11.73;;;5.50;99.40;;;;;;10348277;28;20233;-77
2023/11/30 10:21:14;;;;;;;12.10;10.67;;;5.50;99.50;;;;;;10334805;28;20257;-77
2023/11/30 10:26:17;;;;;;;11.87;10.60;;;5.60;99.80;;;;;;10359357;28;20677;-76
2023/11/30 10:31:23;;;;;;;11.07;9.97;;;5.60;99.80;;;;;;10359294;28;20219;-76
2023/11/30 10:36:26;;;;;;;11.00;10.00;;;5.70;99.50;;;;;;10332243;28;20989;-75
2023/11/30 10:41:41;;;;;;;12.00;10.70;;;5.70;99.20;;;;;;10359205;28;20207;-76
2023/11/30 10:46:46;;;;;;;11.77;10.53;;;5.80;98.70;;;;;;10309587;28;20208;-76
2023/11/30 10:51:49;;;;;;;12.07;10.53;;;5.70;99.30;;;;;;10356537;28;20676;-77
2023/11/30 10:56:52;;;;;;;12.40;11.20;;;5.80;98.40;;;;;;10332275;28;20701;-77
2023/11/30 11:01:56;;;;;;;11.53;10.40;;;5.80;98.20;;;;;;10358742;28;20203;-77
2023/11/30 11:07:02;;;;;;;11.47;10.27;;;5.80;98.40;;;;;;10333317;28;20269;-76
2023/11/30 11:12:05;;;;;;;11.20;10.00;;;5.80;98.10;;;;;;10336520;28;20198;-77
2023/11/30 11:17:10;;;;;;;11.53;9.97;;;5.90;98.20;;;;;;10354909;28;20222;-77
2023/11/30 11:22:23;;;;;;;10.87;9.80;;;6.00;98.70;;;;;;10361402;28;20207;-76
2023/11/30 11:27:30;;;;;;;14.17;12.73;;;6.10;98.40;;;;;;10356881;28;20486;-78
2023/11/30 11:32:35;;;;;;;12.73;11.40;;;6.20;98.50;;;;;;10335627;28;20194;-77
2023/11/30 11:37:37;;;;;;;16.33;14.60;;;6.30;98.10;;;;;;10360624;28;20652;-78
2023/11/30 11:42:40;;;;;;;13.77;12.40;;;6.30;98.10;;;;;;10355330;28;20195;-77
2023/11/30 11:47:43;;;;;;;14.17;10.93;;;6.30;98.00;;;;;;10330588;28;20219;-77
2023/11/30 11:52:46;;;;;;;10.33;9.33;;;6.30;97.70;;;;;;10330554;28;20195;-77
2023/11/30 11:57:49;;;;;;;10.57;9.47;;;6.30;97.50;;;;;;10318461;28;20781;-78
2023/11/30 12:03:04;;;;;;;11.10;10.10;;;6.20;97.80;;;;;;10354600;28;20199;-78
2023/11/30 12:08:06;;;;;;;10.03;9.13;;;6.20;97.70;;;;;;10337669;28;20222;-78
2023/11/30 12:13:11;;;;;;;11.30;9.30;;;6.20;97.80;;;;;;10354719;28;20218;-77
2023/11/30 12:18:15;;;;;;;10.20;9.30;;;6.20;98.20;;;;;;10305176;28;20699;-78
2023/11/30 12:23:18;;;;;;;10.00;9.00;;;6.20;98.30;;;;;;10354734;28;20192;-77
2023/11/30 12:28:20;;;;;;;11.80;10.33;;;6.20;98.80;;;;;;10337972;28;20762;-77
2023/11/30 12:33:24;;;;;;;11.37;10.37;;;6.30;98.70;;;;;;10368598;28;20194;-77
2023/11/30 12:38:27;;;;;;;10.97;8.60;;;6.40;98.50;;;;;;10354939;28;20822;-77
2023/11/30 12:43:29;;;;;;;10.60;9.60;;;6.40;98.80;;;;;;10337532;28;20198;-77
2023/11/30 12:48:33;;;;;;;10.50;9.50;;;6.40;99.30;;;;;;10354278;28;20723;-77
2023/11/30 12:53:35;;;;;;;9.93;9.03;;;6.50;99.20;;;;;;10336155;28;20199;-77
2023/11/30 12:58:37;;;;;;;9.77;8.77;;;6.50;99.40;;;;;;10337048;28;20231;-77
2023/11/30 13:03:42;;;;;;;8.70;7.90;;;6.50;99.00;;;;;;10335797;28;20202;-77
2023/11/30 13:08:44;;;;;;;8.63;7.80;;;6.50;99.10;;;;;;10368101;28;20707;-76
2023/11/30 13:13:47;;;;;;;8.80;8.10;;;6.50;99.40;;;;;;10355249;28;20207;-77
2023/11/30 13:18:50;;;;;;;10.87;9.87;;;6.40;99.70;;;;;;10330216;28;20276;-77
2023/11/30 13:23:53;;;;;;;9.23;8.33;;;6.50;99.80;;;;;;10342272;28;20202;-77
2023/11/30 13:28:55;;;;;;;11.00;10.00;;;6.50;99.60;;;;;;10341343;28;20269;-77
2023/11/30 13:33:59;;;;;;;10.73;9.63;;;6.50;99.10;;;;;;10329287;28;20211;-77
2023/11/30 13:39:03;;;;;;;10.13;9.10;;;6.50;99.40;;;;;;10289114;28;20218;-78
2023/11/30 13:44:05;;;;;;;9.43;8.53;;;6.50;99.20;;;;;;10355978;28;20223;-77
2023/11/30 13:49:13;;;;;;;13.47;9.93;;;6.40;98.80;;;;;;10337404;28;20233;-78
2023/11/30 13:54:16;;;;;;;10.37;9.37;;;6.50;99.00;;;;;;10358292;28;20258;-78
2023/11/30 13:59:18;;;;;;;10.63;9.63;;;6.40;98.90;;;;;;10335050;28;20199;-77
2023/11/30 14:04:22;;;;;;;11.73;10.23;;;6.40;99.10;;;;;;10317573;28;20267;-77
2023/11/30 14:09:26;;;;;;;10.03;9.13;;;6.40;99.30;;;;;;10333908;28;20617;-77
2023/11/30 14:14:29;;;;;;;10.67;9.17;;;6.30;99.20;;;;;;10334152;28;20215;-78
2023/11/30 14:19:33;;;;;;;11.23;10.23;;;6.30;99.30;;;;;;10334509;28;20841;-78
2023/11/30 14:24:36;;;;;;;11.20;10.10;;;6.30;99.30;;;;;;10335850;28;20247;-77
2023/11/30 14:29:38;;;;;;;11.73;10.50;;;6.30;99.10;;;;;;10334333;28;20211;-77
2023/11/30 14:34:42;;;;;;;11.60;10.40;;;6.30;99.00;;;;;;10335450;28;20234;-77
2023/11/30 14:39:47;;;;;;;12.90;11.60;;;6.40;99.10;;;;;;10333820;28;20258;-77
2023/11/30 14:44:49;;;;;;;11.90;10.70;;;6.30;99.40;;;;;;10333193;28;20215;-77
2023/11/30 14:49:53;;;;;;;11.53;10.33;;;6.30;99.90;;;;;;10337880;28;20203;-77
2023/11/30 14:54:55;;;;;;;12.17;11.07;;;6.40;99.80;;;;;;10331984;28;20215;-77
2023/11/30 15:00:00;;;;;;;12.53;10.50;;;6.30;99.50;;;;;;10338153;28;20228;-78
2023/11/30 15:05:06;;;;;;;13.43;12.03;;;6.30;99.50;;;;;;10331782;28;20228;-77
2023/11/30 15:10:10;;;;;;;10.67;9.63;;;6.30;99.90;;;;;;10332879;28;20203;-77
2023/11/30 15:15:13;;;;;;;12.80;11.67;;;6.30;99.90;;;;;;10331742;28;20652;-77
2023/11/30 15:20:17;;;;;;;11.60;9.80;;;6.30;99.90;;;;;;10332750;28;20218;-77
2023/11/30 15:25:20;;;;;;;12.00;10.80;;;6.30;99.90;;;;;;10344563;23;20269;-76
2023/11/30 15:30:24;;;;;;;13.13;11.83;;;6.30;99.90;;;;;;10321796;28;20268;-78
2023/11/30 15:35:28;;;;;;;12.13;9.97;;;6.30;99.90;;;;;;10294960;28;20219;-77
2023/11/30 15:40:31;;;;;;;11.00;9.90;;;6.20;99.90;;;;;;10320985;28;20254;-77
2023/11/30 15:45:33;;;;;;;12.23;10.93;;;6.20;99.90;;;;;;10325505;28;20270;-77
2023/11/30 15:50:37;;;;;;;10.10;9.00;;;6.10;99.90;;;;;;10318469;28;20203;-77
2023/11/30 15:55:39;;;;;;;12.00;10.90;;;6.00;99.90;;;;;;10318229;28;20584;-76
2023/11/30 16:00:41;;;;;;;12.60;11.47;;;6.00;99.90;;;;;;10318763;28;20194;-76
2023/11/30 16:05:45;;;;;;;12.27;11.00;;;6.00;99.90;;;;;;10312153;28;20208;-77
2023/11/30 16:10:48;;;;;;;16.63;15.00;;;5.90;99.90;;;;;;10282625;28;20249;-77
2023/11/30 16:15:51;;;;;;;13.30;11.90;;;6.00;99.90;;;;;;10324427;28;20707;-76
2023/11/30 16:20:55;;;;;;;12.87;11.57;;;6.00;99.90;;;;;;10322012;28;20669;-77
2023/11/30 16:25:57;;;;;;;12.37;11.07;;;6.00;99.90;;;;;;10301365;28;20222;-77
2023/11/30 16:30:59;;;;;;;17.00;15.20;;;6.00;99.90;;;;;;10310419;28;20191;-77
2023/11/30 16:36:03;;;;;;;11.93;10.73;;;6.00;99.90;;;;;;10311402;28;20227;-77
2023/11/30 16:41:07;;;;;;;24.13;19.83;;;6.00;99.90;;;;;;10313257;28;20207;-76
2023/11/30 16:46:09;;;;;;;12.70;11.50;;;6.00;99.90;;;;;;10299920;28;20208;-77
2023/11/30 16:51:13;;;;;;;16.80;14.53;;;6.00;99.90;;;;;;10302965;28;20187;-77
2023/11/30 16:56:16;;;;;;;12.23;11.10;;;6.00;99.90;;;;;;10305314;28;20646;-77
2023/11/30 17:01:18;;;;;;;12.20;11.00;;;6.00;99.90;;;;;;10318701;28;20199;-77
2023/11/30 17:06:22;;;;;;;19.87;16.40;;;6.00;99.90;;;;;;10288380;28;20735;-77
2023/11/30 17:11:24;;;;;;;30.70;22.20;;;6.00;99.90;;;;;;10311519;28;20658;-77
2023/11/30 17:16:27;;;;;;;15.53;12.80;;;6.10;99.90;;;;;;10326119;28;20222;-77
2023/11/30 17:21:31;;;;;;;14.30;12.90;;;6.10;99.90;;;;;;10303158;28;20231;-77
2023/11/30 17:26:33;;;;;;;11.33;10.23;;;6.10;99.90;;;;;;10293367;28;20231;-77
2023/11/30 17:31:35;;;;;;;18.07;12.60;;;6.10;99.90;;;;;;10294782;28;20211;-76
2023/11/30 17:36:41;;;;;;;13.93;12.53;;;6.10;99.90;;;;;;10282342;28;20211;-77
2023/11/30 17:41:44;;;;;;;12.83;11.57;;;6.10;99.90;;;;;;10315923;28;20203;-77
2023/11/30 17:46:46;;;;;;;14.10;12.70;;;6.10;99.90;;;;;;10306838;28;20262;-77
2023/11/30 17:51:50;;;;;;;13.73;12.43;;;6.10;99.90;;;;;;10287808;28;20204;-76
2023/11/30 17:56:52;;;;;;;15.07;13.67;;;6.00;99.90;;;;;;10296561;28;20713;-77
2023/11/30 18:01:55;;;;;;;15.67;14.07;;;6.10;99.90;;;;;;10304015;28;20200;-77
2023/11/30 18:07:00;;;;;;;12.80;11.50;;;6.10;99.90;;;;;;10283848;28;20546;-76
2023/11/30 18:12:03;;;;;;;12.80;11.60;;;6.00;99.90;;;;;;10287962;28;20688;-77
2023/11/30 18:17:05;;;;;;;13.07;11.80;;;6.00;99.90;;;;;;10303747;28;20624;-77
2023/11/30 18:22:09;;;;;;;15.33;13.40;;;6.00;99.90;;;;;;10307546;28;20203;-76
2023/11/30 18:27:11;;;;;;;13.90;12.70;;;6.00;99.90;;;;;;10309081;28;20223;-77
2023/11/30 18:32:14;;;;;;;14.10;12.70;;;6.00;99.90;;;;;;10308581;28;20257;-76
2023/11/30 18:37:18;;;;;;;14.33;13.00;;;5.90;99.90;;;;;;10309803;28;20219;-77
2023/11/30 18:42:21;;;;;;;14.50;13.10;;;5.90;99.90;;;;;;10312159;28;20253;-77
2023/11/30 18:47:23;;;;;;;12.77;11.57;;;5.90;99.90;;;;;;10302515;28;20195;-76
2023/11/30 18:52:27;;;;;;;11.73;10.50;;;5.90;99.90;;;;;;10319742;28;20210;-76
2023/11/30 18:57:29;;;;;;;13.33;12.07;;;5.90;99.90;;;;;;10303003;28;20223;-77
2023/11/30 19:02:32;;;;;;;16.17;11.50;;;5.90;99.90;;;;;;10318431;28;20195;-78
2023/11/30 19:07:36;;;;;;;13.90;12.53;;;5.90;99.90;;;;;;10305413;28;20195;-78
2023/11/30 19:12:39;;;;;;;11.27;10.20;;;5.90;99.90;;;;;;10305316;28;20711;-80
2023/11/30 19:17:45;;;;;;;13.30;11.90;;;5.90;99.90;;;;;;10311233;28;20227;-80
2023/11/30 19:22:49;;;;;;;13.50;11.30;;;5.90;99.90;;;;;;10329354;28;20238;-78
2023/11/30 19:27:53;;;;;;;13.27;11.63;;;5.80;99.90;;;;;;10305329;28;20549;-78
2023/11/30 19:32:55;;;;;;;14.17;12.80;;;5.80;99.90;;;;;;10307898;28;20223;-77
2023/11/30 19:37:59;;;;;;;14.40;12.93;;;5.80;99.90;;;;;;10308821;28;20239;-79
2023/11/30 19:43:01;;;;;;;13.60;12.30;;;5.80;99.90;;;;;;10327703;28;20269;-78
2023/11/30 19:48:04;;;;;;;14.57;13.20;;;5.80;99.90;;;;;;10314217;28;20195;-77
2023/11/30 19:53:08;;;;;;;14.73;13.23;;;5.80;99.90;;;;;;10316937;28;20223;-78
2023/11/30 19:58:11;;;;;;;17.00;15.27;;;5.80;99.90;;;;;;10318686;28;20274;-78
2023/11/30 20:03:13;;;;;;;14.83;13.30;;;5.80;99.90;;;;;;10332803;28;20219;-78
2023/11/30 20:08:17;;;;;;;16.00;14.30;;;5.80;99.90;;;;;;10329805;28;20631;-77
2023/11/30 20:13:19;;;;;;;15.90;14.30;;;5.80;99.90;;;;;;10328455;28;20215;-79
2023/11/30 20:18:21;;;;;;;16.30;14.60;;;5.80;99.90;;;;;;10328080;28;20731;-78
2023/11/30 20:23:25;;;;;;;16.87;14.97;;;5.80;99.90;;;;;;10326395;28;20234;-76
2023/11/30 20:28:28;;;;;;;15.83;14.33;;;5.80;99.90;;;;;;10313597;28;20195;-77
2023/11/30 20:33:30;;;;;;;14.37;12.93;;;5.80;99.90;;;;;;10302409;28;20277;-79
2023/11/30 20:38:34;;;;;;;17.70;14.70;;;5.80;99.90;;;;;;10287252;28;20227;-78
2023/11/30 20:43:36;;;;;;;15.70;14.10;;;5.80;99.90;;;;;;10324922;28;20223;-77
2023/11/30 20:48:39;;;;;;;15.53;13.80;;;5.80;99.90;;;;;;10303261;28;20629;-78
2023/11/30 20:53:43;;;;;;;15.77;14.20;;;5.80;99.90;;;;;;10319754;28;20639;-78
2023/11/30 20:58:47;;;;;;;16.50;14.90;;;5.80;99.90;;;;;;10303797;28;20230;-78
2023/11/30 21:03:49;;;;;;;14.27;13.03;;;5.70;99.90;;;;;;10300327;28;20277;-78
2023/11/30 21:08:53;;;;;;;15.80;14.30;;;5.70;99.90;;;;;;10305502;28;20665;-80
2023/11/30 21:13:56;;;;;;;17.33;15.53;;;5.70;99.90;;;;;;10310882;28;20223;-77
2023/11/30 21:18:59;;;;;;;15.70;14.20;;;5.70;99.90;;;;;;10292032;28;20231;-77
2023/11/30 21:24:03;;;;;;;14.83;13.33;;;5.60;99.90;;;;;;10304743;28;20231;-77
2023/11/30 21:29:05;;;;;;;16.47;14.93;;;5.60;99.90;;;;;;10288975;28;20211;-78
2023/11/30 21:34:07;;;;;;;15.27;13.77;;;5.60;99.90;;;;;;10322794;23;20293;-76
2023/11/30 21:39:12;;;;;;;15.10;13.50;;;5.60;99.90;;;;;;10287739;28;20266;-76
2023/11/30 21:44:15;;;;;;;16.00;14.30;;;5.70;99.90;;;;;;10296546;28;20652;-76
2023/11/30 21:49:19;;;;;;;15.00;13.60;;;5.70;99.90;;;;;;10272015;28;20199;-76
2023/11/30 21:54:23;;;;;;;15.30;12.77;;;5.60;99.90;;;;;;10279588;28;20219;-76
2023/11/30 21:59:26;;;;;;;14.00;12.70;;;5.60;99.90;;;;;;10266402;28;20660;-76
2023/11/30 22:04:28;;;;;;;14.07;12.63;;;5.60;99.90;;;;;;10260403;28;20234;-76
2023/11/30 22:09:32;;;;;;;13.73;12.47;;;5.60;99.90;;;;;;10264057;28;20204;-76
2023/11/30 22:14:37;;;;;;;13.53;12.27;;;5.60;99.90;;;;;;10275457;28;20231;-75
2023/11/30 22:19:40;;;;;;;14.07;12.70;;;5.60;99.90;;;;;;10279661;28;20219;-76
2023/11/30 22:24:46;;;;;;;13.97;12.70;;;5.70;99.90;;;;;;10278164;28;20666;-76
2023/11/30 22:29:49;;;;;;;15.00;13.50;;;5.60;99.90;;;;;;10278442;28;20247;-76
2023/11/30 22:34:51;;;;;;;14.30;13.10;;;5.60;99.90;;;;;;10277033;28;20224;-76
2023/11/30 22:39:55;;;;;;;14.93;13.33;;;5.60;99.90;;;;;;10278485;28;20216;-76
2023/11/30 22:44:58;;;;;;;15.67;14.03;;;5.60;99.90;;;;;;10268349;28;20199;-76
2023/11/30 22:50:00;;;;;;;14.90;13.40;;;5.60;99.90;;;;;;10256053;28;20208;-76
2023/11/30 22:55:06;;;;;;;14.77;13.40;;;5.50;99.90;;;;;;10284659;28;20212;-77
2023/11/30 23:00:19;;;;;;;15.57;14.10;;;5.50;99.90;;;;;;10274968;28;20279;-76
2023/11/30 23:05:22;;;;;;;13.93;12.53;;;5.40;99.90;;;;;;10270232;28;20200;-76
2023/11/30 23:10:25;;;;;;;15.93;14.37;;;5.40;99.90;;;;;;10258110;28;20564;-76
2023/11/30 23:15:28;;;;;;;15.40;13.80;;;5.40;99.90;;;;;;10283108;28;20204;-76
2023/11/30 23:20:30;;;;;;;15.13;13.73;;;5.40;99.90;;;;;;10275112;28;20587;-76
2023/11/30 23:25:34;;;;;;;14.90;13.50;;;5.50;99.90;;;;;;10272655;28;20266;-76
2023/11/30 23:30:37;;;;;;;15.10;13.70;;;5.50;99.90;;;;;;10273797;28;20216;-75
2023/11/30 23:35:39;;;;;;;15.37;13.97;;;5.50;99.90;;;;;;10271109;28;20251;-76
2023/11/30 23:40:43;;;;;;;13.93;12.67;;;5.50;99.90;;;;;;10275279;28;20240;-76
2023/11/30 23:45:45;;;;;;;14.23;12.83;;;5.50;99.90;;;;;;10256641;28;20197;-76
2023/11/30 23:50:47;;;;;;;17.50;15.80;;;5.60;99.90;;;;;;10259674;28;20212;-75
2023/11/30 23:55:51;;;;;;;14.97;13.53;;;5.60;99.90;;;;;;10264941;28;20224;-77
